Time;durP1;ratioP1;P1;durP2;ratioP2;P2;SDS_P1;SDS_P2;PMS_P1;PMS_P2;Temp;Humidity;BMP_temperature;BMP_pressure;BME280_temperature;BME280_humidity;BME280_pressure;Samples;Min_cycle;Max_cycle;Signal;HPM_P1;HPM_P2
2022/01/11 00:04:52;;;;;;;21.27;18.60;;;;;;;;;;12445932;28;20045;-74
2022/01/11 00:11:02;;;;;;;19.80;15.85;;;;;;;;;;12445754;28;20034;-74
2022/01/11 00:17:04;;;;;;;22.88;19.48;;;;;;;;;;12445471;28;20479;-74
2022/01/11 00:29:08;;;;;;;17.05;15.25;;;;;;;;;;12445333;28;20042;-74
2022/01/11 00:35:38;;;;;;;19.15;15.60;;;;;;;;;;12587246;28;20865;-73
2022/01/11 00:41:41;;;;;;;18.75;16.05;;;;;;;;;;12587029;28;20056;-73
2022/01/11 00:47:42;;;;;;;28.13;22.30;;;;;;;;;;12586534;28;20037;-73
2022/01/11 00:53:44;;;;;;;23.63;18.77;;;;;;;;;;12586072;28;20044;-73
2022/01/11 00:59:45;;;;;;;18.92;16.42;;;;;;;;;;12584564;28;20036;-73
2022/01/11 01:05:47;;;;;;;25.33;19.42;;;;;;;;;;12585751;28;20036;-73
2022/01/11 01:11:51;;;;;;;20.08;16.75;;;;;;;;;;12584308;28;20045;-73
2022/01/11 01:17:54;;;;;;;21.83;17.08;;;;;;;;;;12584822;28;20037;-73
2022/01/11 01:23:56;;;;;;;24.58;18.75;;;;;;;;;;12583834;28;20044;-73
2022/01/11 01:29:58;;;;;;;16.65;14.13;;;;;;;;;;12566221;28;20535;-73
2022/01/11 01:36:08;;;;;;;19.23;14.95;;;;;;;;;;12583133;28;20025;-73
2022/01/11 01:42:12;;;;;;;13.63;10.98;;;;;;;;;;12577211;28;20398;-73
2022/01/11 01:48:15;;;;;;;19.10;15.13;;;;;;;;;;12550313;28;20435;-73
2022/01/11 01:54:18;;;;;;;14.60;12.32;;;;;;;;;;12550282;28;20041;-73
2022/01/11 02:00:22;;;;;;;15.30;13.32;;;;;;;;;;12549203;28;20048;-73
2022/01/11 02:06:24;;;;;;;16.88;14.15;;;;;;;;;;12549942;28;20033;-73
2022/01/11 02:12:25;;;;;;;15.05;13.18;;;;;;;;;;12549420;28;20041;-74
2022/01/11 02:18:27;;;;;;;21.65;16.98;;;;;;;;;;12531986;28;20391;-73
2022/01/11 02:24:37;;;;;;;17.95;15.98;;;;;;;;;;12532499;28;20062;-73
2022/01/11 02:30:41;;;;;;;16.90;13.90;;;;;;;;;;12547204;28;20049;-74
2022/01/11 02:36:44;;;;;;;19.45;15.93;;;;;;;;;;12547381;28;20033;-74
2022/01/11 02:43:02;;;;;;;14.43;11.77;;;;;;;;;;12547203;28;20482;-74
2022/01/11 02:49:04;;;;;;;22.10;18.20;;;;;;;;;;12546984;28;20029;-73
2022/01/11 02:55:14;;;;;;;14.48;12.52;;;;;;;;;;12546003;28;20045;-73
2022/01/11 03:01:17;;;;;;;25.45;19.88;;;;;;;;;;12547833;28;20490;-74
2022/01/11 03:07:22;;;;;;;18.03;14.07;;;;;;;;;;12545594;28;20041;-74
2022/01/11 03:13:25;;;;;;;29.17;23.80;;;;;;;;;;12545520;28;20310;-74
2022/01/11 03:19:27;;;;;;;23.30;18.53;;;;;;;;;;12545205;28;20052;-74
2022/01/11 03:25:29;;;;;;;22.00;16.40;;;;;;;;;;12528636;28;20032;-74
2022/01/11 03:31:31;;;;;;;15.17;12.83;;;;;;;;;;12544565;28;20048;-74
2022/01/11 03:37:33;;;;;;;16.27;13.50;;;;;;;;;;12528060;28;20120;-74
2022/01/11 03:43:35;;;;;;;17.43;13.57;;;;;;;;;;12527812;28;20601;-73
2022/01/11 03:49:37;;;;;;;13.50;12.10;;;;;;;;;;12527566;28;20390;-73
2022/01/11 04:01:51;;;;;;;20.60;15.60;;;;;;;;;;12544036;28;20045;-74
2022/01/11 04:07:53;;;;;;;18.23;13.20;;;;;;;;;;12544412;28;20394;-74
2022/01/11 04:13:55;;;;;;;14.65;10.23;;;;;;;;;;12543034;28;20047;-74
2022/01/11 04:19:59;;;;;;;17.65;14.38;;;;;;;;;;12542888;28;20033;-74
2022/01/11 04:26:01;;;;;;;17.33;14.23;;;;;;;;;;12544213;28;20076;-75
2022/01/11 04:32:05;;;;;;;18.02;15.68;;;;;;;;;;12542129;28;20057;-73
2022/01/11 04:38:07;;;;;;;17.77;13.83;;;;;;;;;;12542577;28;20040;-73
2022/01/11 04:44:09;;;;;;;17.25;12.93;;;;;;;;;;12543728;28;20040;-73
2022/01/11 04:50:12;;;;;;;19.60;14.73;;;;;;;;;;12542093;28;20063;-73
2022/01/11 04:56:15;;;;;;;10.95;9.27;;;;;;;;;;12542171;28;20029;-73
2022/01/11 05:02:17;;;;;;;11.63;9.23;;;;;;;;;;12525714;28;20048;-73
2022/01/11 05:08:19;;;;;;;13.37;11.00;;;;;;;;;;12541941;28;20040;-73
2022/01/11 05:14:21;;;;;;;14.93;12.73;;;;;;;;;;12541703;28;20037;-74
2022/01/11 05:20:26;;;;;;;14.20;12.60;;;;;;;;;;12548094;28;20040;-73
2022/01/11 05:26:28;;;;;;;17.53;14.27;;;;;;;;;;12550939;28;20033;-74
2022/01/11 05:32:30;;;;;;;16.48;13.98;;;;;;;;;;12550226;28;20490;-74
2022/01/11 05:38:32;;;;;;;8.82;7.55;;;;;;;;;;12550475;28;20037;-74
2022/01/11 05:44:34;;;;;;;16.05;11.88;;;;;;;;;;12533136;28;20036;-74
2022/01/11 05:50:38;;;;;;;10.63;8.93;;;;;;;;;;12549526;28;20052;-73
2022/01/11 05:56:42;;;;;;;16.73;13.68;;;;;;;;;;12549455;28;20039;-74
2022/01/11 06:02:46;;;;;;;16.80;12.98;;;;;;;;;;12549375;28;20037;-73
2022/01/11 06:08:55;;;;;;;12.85;11.00;;;;;;;;;;12548639;28;20376;-73
2022/01/11 06:14:57;;;;;;;17.30;13.68;;;;;;;;;;12548023;28;20048;-73
2022/01/11 06:20:58;;;;;;;18.52;14.80;;;;;;;;;;12547811;28;20036;-73
2022/01/11 06:27:01;;;;;;;19.50;15.38;;;;;;;;;;12547546;28;20398;-74
2022/01/11 06:33:03;;;;;;;20.63;15.27;;;;;;;;;;12547080;28;20083;-74
2022/01/11 06:39:05;;;;;;;11.10;9.27;;;;;;;;;;12544425;28;20287;-75
2022/01/11 06:45:11;;;;;;;12.68;11.23;;;;;;;;;;12524557;28;20025;-75
2022/01/11 06:51:13;;;;;;;16.48;12.25;;;;;;;;;;12524003;28;20045;-75
2022/01/11 06:57:21;;;;;;;16.15;13.93;;;;;;;;;;12512088;28;20365;-75
2022/01/11 07:03:24;;;;;;;17.55;13.77;;;;;;;;;;12506728;28;20406;-73
2022/01/11 07:09:45;;;;;;;15.43;13.27;;;;;;;;;;12508778;28;20060;-75
2022/01/11 07:15:47;;;;;;;15.77;12.10;;;;;;;;;;12494150;28;20045;-75
2022/01/11 07:21:52;;;;;;;21.40;16.90;;;;;;;;;;12503397;28;20048;-75
2022/01/11 07:27:54;;;;;;;19.02;15.25;;;;;;;;;;12517224;28;20163;-75
2022/01/11 07:33:56;;;;;;;20.00;16.43;;;;;;;;;;12487684;28;20179;-75
2022/01/11 07:40:00;;;;;;;18.33;14.02;;;;;;;;;;12485490;28;20067;-75
2022/01/11 07:46:02;;;;;;;12.07;10.27;;;;;;;;;;12500898;28;20171;-75
2022/01/11 07:52:12;;;;;;;11.73;9.90;;;;;;;;;;12497715;28;20445;-76
2022/01/11 07:58:14;;;;;;;15.18;11.63;;;;;;;;;;12502120;28;20525;-75
2022/01/11 08:04:17;;;;;;;14.10;11.77;;;;;;;;;;12483485;28;20064;-75
2022/01/11 08:10:24;;;;;;;20.02;15.45;;;;;;;;;;12500125;28;20064;-75
2022/01/11 08:16:26;;;;;;;14.02;11.55;;;;;;;;;;12485726;28;20444;-76
2022/01/11 08:22:29;;;;;;;;;;;;;;;;;;12483574;28;20502;-76
2022/01/11 08:28:31;;;;;;;28.55;22.13;;;;;;;;;;12484658;28;19960;-75
2022/01/11 08:34:37;;;;;;;22.20;18.63;;;;;;;;;;12484614;28;20084;-75
2022/01/11 08:40:40;;;;;;;18.25;15.57;;;;;;;;;;12498992;28;21006;-75
2022/01/11 08:46:43;;;;;;;21.23;18.45;;;;;;;;;;12484501;28;20060;-76
2022/01/11 08:52:54;;;;;;;18.42;16.60;;;;;;;;;;12487222;28;20517;-74
2022/01/11 08:58:59;;;;;;;18.17;16.40;;;;;;;;;;12510257;28;20064;-75
2022/01/11 09:05:07;;;;;;;19.75;17.95;;;;;;;;;;12496345;28;20398;-75
2022/01/11 09:11:12;;;;;;;18.65;16.80;;;;;;;;;;12508906;28;20076;-75
2022/01/11 09:17:16;;;;;;;17.20;15.32;;;;;;;;;;12511021;28;20876;-75
2022/01/11 09:23:19;;;;;;;12.57;11.40;;;;;;;;;;12508329;28;20072;-75
2022/01/11 09:29:21;;;;;;;12.10;10.93;;;;;;;;;;12513789;28;20029;-74
2022/01/11 09:35:23;;;;;;;12.40;11.20;;;;;;;;;;12522146;28;20060;-77
2022/01/11 09:41:32;;;;;;;8.55;7.75;;;;;;;;;;12518992;28;20030;-76
2022/01/11 09:47:34;;;;;;;10.35;9.23;;;;;;;;;;12534012;28;20030;-75
2022/01/11 09:53:36;;;;;;;9.48;8.60;;;;;;;;;;12507319;28;20575;-75
2022/01/11 09:59:41;;;;;;;9.73;8.80;;;;;;;;;;12513470;28;20041;-76
2022/01/11 10:06:15;;;;;;;12.35;10.88;;;;;;;;;;12518917;28;20466;-75
2022/01/11 10:12:18;;;;;;;9.68;8.77;;;;;;;;;;12513522;28;20037;-75
2022/01/11 10:18:34;;;;;;;8.70;7.90;;;;;;;;;;12500537;28;20037;-75
2022/01/11 10:25:04;;;;;;;8.77;7.47;;;;;;;;;;12502780;28;20061;-75
2022/01/11 10:31:12;;;;;;;6.32;5.43;;;;;;;;;;12500250;28;20091;-75
2022/01/11 10:37:27;;;;;;;5.03;4.63;;;;;;;;;;12496990;28;20105;-75
2022/01/11 10:43:30;;;;;;;4.78;4.32;;;;;;;;;;12497943;28;20060;-76
2022/01/11 10:49:35;;;;;;;7.78;3.92;;;;;;;;;;12500466;28;20060;-75
2022/01/11 10:55:37;;;;;;;3.30;2.83;;;;;;;;;;12485634;28;20069;-75
2022/01/11 11:01:42;;;;;;;3.90;3.53;;;;;;;;;;12500928;28;20076;-75
2022/01/11 11:07:55;;;;;;;4.20;3.72;;;;;;;;;;12496337;28;20510;-75
2022/01/11 11:13:59;;;;;;;3.72;3.42;;;;;;;;;;12482425;28;20076;-76
2022/01/11 11:20:06;;;;;;;3.63;3.33;;;;;;;;;;12501152;28;20497;-75
2022/01/11 11:26:08;;;;;;;5.85;5.35;;;;;;;;;;12494245;28;20394;-75
2022/01/11 11:32:10;;;;;;;4.53;4.13;;;;;;;;;;12500506;28;20346;-76
2022/01/11 11:38:13;;;;;;;3.40;3.10;;;;;;;;;;12501753;28;20072;-75
2022/01/11 11:44:16;;;;;;;4.07;3.77;;;;;;;;;;12499715;28;20959;-75
2022/01/11 11:50:21;;;;;;;3.25;3.00;;;;;;;;;;12483352;28;20570;-74
2022/01/11 11:56:25;;;;;;;3.90;3.60;;;;;;;;;;12499473;28;20069;-74
2022/01/11 12:02:30;;;;;;;2.58;2.30;;;;;;;;;;12509717;28;20044;-74
2022/01/11 12:08:43;;;;;;;2.72;2.53;;;;;;;;;;12497925;28;20032;-75
2022/01/11 12:14:45;;;;;;;2.93;2.67;;;;;;;;;;12501917;28;20041;-76
2022/01/11 12:20:49;;;;;;;2.88;2.60;;;;;;;;;;12500769;28;20361;-74
2022/01/11 12:26:57;;;;;;;1.83;1.73;;;;;;;;;;12522279;28;20040;-75
2022/01/11 12:33:08;;;;;;;2.28;1.60;;;;;;;;;;12495358;28;20057;-75
2022/01/11 12:39:10;;;;;;;1.45;1.35;;;;;;;;;;12493407;28;20033;-75
2022/01/11 12:51:30;;;;;;;0.90;0.90;;;;;;;;;;12492517;28;20048;-74
2022/01/11 12:57:33;;;;;;;2.08;1.20;;;;;;;;;;12493579;28;20396;-74
2022/01/11 13:03:35;;;;;;;;;;;;;;;;;;12495794;28;20040;-75
2022/01/11 13:09:36;;;;;;;1.20;1.10;;;;;;;;;;12506429;28;20310;-74
2022/01/11 13:15:39;;;;;;;3.08;1.40;;;;;;;;;;12492557;28;20045;-75
2022/01/11 13:21:41;;;;;;;;;;;;;;;;;;12492536;28;20041;-74
2022/01/11 13:27:53;;;;;;;1.20;1.10;;;;;;;;;;12493166;28;19916;-75
2022/01/11 13:33:58;;;;;;;1.25;1.15;;;;;;;;;;12530094;28;20060;-74
2022/01/11 13:40:00;;;;;;;1.00;0.90;;;;;;;;;;12543982;28;20067;-75
2022/01/11 13:46:02;;;;;;;1.23;0.90;;;;;;;;;;12550439;28;20033;-75
2022/01/11 13:52:07;;;;;;;1.20;1.10;;;;;;;;;;12549388;28;20045;-75
2022/01/11 13:58:08;;;;;;;1.20;1.10;;;;;;;;;;12550288;28;20055;-75
2022/01/11 14:04:10;;;;;;;1.50;1.30;;;;;;;;;;12550058;28;20525;-75
2022/01/11 14:10:14;;;;;;;1.45;1.35;;;;;;;;;;12550042;28;20033;-75
2022/01/11 14:16:18;;;;;;;1.55;1.45;;;;;;;;;;12549354;28;20048;-76
2022/01/11 14:22:22;;;;;;;1.67;1.58;;;;;;;;;;12548162;28;20043;-75
2022/01/11 14:28:25;;;;;;;3.30;3.00;;;;;;;;;;12548875;28;20393;-76
2022/01/11 14:34:27;;;;;;;;;;;;;;;;;;12548954;28;20052;-75
2022/01/11 14:40:29;;;;;;;2.75;2.00;;;;;;;;;;12530294;28;19908;-75
2022/01/11 14:46:32;;;;;;;2.72;2.53;;;;;;;;;;12546091;28;20032;-75
2022/01/11 14:52:48;;;;;;;3.25;2.95;;;;;;;;;;12546953;28;20045;-75
2022/01/11 14:58:55;;;;;;;3.30;3.00;;;;;;;;;;12547254;28;20139;-75
2022/01/11 15:04:58;;;;;;;3.40;3.10;;;;;;;;;;12546145;28;20048;-75
2022/01/11 15:11:08;;;;;;;3.50;3.20;;;;;;;;;;12545611;28;20036;-75
2022/01/11 15:17:10;;;;;;;4.05;3.20;;;;;;;;;;12545174;28;20044;-75
2022/01/11 15:23:12;;;;;;;3.58;3.28;;;;;;;;;;12546950;28;20036;-75
2022/01/11 15:29:20;;;;;;;3.97;3.50;;;;;;;;;;12545970;28;20029;-75
2022/01/11 15:35:22;;;;;;;3.28;2.95;;;;;;;;;;12545536;28;20064;-75
2022/01/11 15:41:26;;;;;;;3.60;3.30;;;;;;;;;;12544217;28;20033;-75
2022/01/11 15:47:28;;;;;;;5.60;3.95;;;;;;;;;;12544870;28;20052;-75
2022/01/11 15:53:30;;;;;;;3.60;3.13;;;;;;;;;;12544884;28;20387;-75
2022/01/11 15:59:32;;;;;;;7.20;3.85;;;;;;;;;;12526764;28;20044;-76
2022/01/11 16:05:33;;;;;;;5.35;4.50;;;;;;;;;;12543836;28;20036;-75
2022/01/11 16:11:35;;;;;;;5.22;4.35;;;;;;;;;;12543105;28;20044;-76
2022/01/11 16:17:37;;;;;;;5.65;4.28;;;;;;;;;;12526024;28;20029;-75
2022/01/11 16:23:39;;;;;;;8.60;6.32;;;;;;;;;;12543714;28;20398;-76
2022/01/11 16:29:40;;;;;;;7.07;5.00;;;;;;;;;;12543465;28;20044;-77
2022/01/11 16:35:44;;;;;;;4.47;4.07;;;;;;;;;;12543306;28;20049;-75
2022/01/11 16:48:06;;;;;;;10.73;6.90;;;;;;;;;;12543354;28;20497;-76
2022/01/11 16:54:08;;;;;;;6.63;4.77;;;;;;;;;;12543176;28;20037;-75
2022/01/11 17:00:12;;;;;;;18.38;12.07;;;;;;;;;;12542964;28;20037;-75
2022/01/11 17:06:14;;;;;;;9.70;7.20;;;;;;;;;;12542942;28;20483;-76
2022/01/11 17:12:15;;;;;;;7.72;5.72;;;;;;;;;;12541122;28;20037;-75
2022/01/11 17:18:17;;;;;;;9.70;8.40;;;;;;;;;;12552075;28;20028;-75
2022/01/11 17:24:19;;;;;;;11.23;9.82;;;;;;;;;;12534134;28;20040;-74
2022/01/11 17:30:22;;;;;;;12.25;10.38;;;;;;;;;;12550465;28;20049;-74
2022/01/11 17:36:24;;;;;;;10.85;9.55;;;;;;;;;;12550130;28;20071;-75
2022/01/11 17:42:25;;;;;;;9.52;8.45;;;;;;;;;;12549839;28;20024;-75
2022/01/11 17:48:27;;;;;;;9.95;8.70;;;;;;;;;;12550103;28;20505;-76
2022/01/11 17:54:30;;;;;;;9.48;7.20;;;;;;;;;;12549760;28;20124;-75
2022/01/11 18:00:33;;;;;;;8.32;6.95;;;;;;;;;;12549297;28;20048;-75
2022/01/11 18:06:35;;;;;;;8.23;7.43;;;;;;;;;;12549707;28;20375;-75
2022/01/11 18:12:37;;;;;;;7.70;7.00;;;;;;;;;;12548535;28;20044;-75
2022/01/11 18:18:53;;;;;;;10.07;8.27;;;;;;;;;;12687557;27;20494;-75
2022/01/11 18:24:55;;;;;;;8.77;7.78;;;;;;;;;;12687520;28;20035;-75
2022/01/11 18:31:00;;;;;;;7.40;6.28;;;;;;;;;;12686956;28;20032;-75
2022/01/11 18:37:01;;;;;;;9.25;8.07;;;;;;;;;;12686851;28;20050;-75
2022/01/11 18:43:04;;;;;;;8.88;8.07;;;;;;;;;;12668162;28;20047;-75
2022/01/11 18:49:07;;;;;;;8.80;7.90;;;;;;;;;;12685306;28;20035;-75
2022/01/11 18:55:09;;;;;;;8.70;7.90;;;;;;;;;;12684584;28;20516;-75
2022/01/11 19:01:10;;;;;;;9.40;8.37;;;;;;;;;;12685502;28;20028;-75
2022/01/11 19:07:13;;;;;;;10.75;9.65;;;;;;;;;;12685360;28;20039;-75
2022/01/11 19:13:14;;;;;;;11.47;9.93;;;;;;;;;;12683309;28;20052;-75
2022/01/11 19:19:20;;;;;;;13.90;12.50;;;;;;;;;;12666652;28;20039;-75
2022/01/11 19:25:22;;;;;;;12.48;11.30;;;;;;;;;;12678255;28;20039;-75
2022/01/11 19:31:24;;;;;;;15.02;13.52;;;;;;;;;;12650692;28;20021;-74
2022/01/11 19:37:27;;;;;;;9.93;8.95;;;;;;;;;;12649971;28;20040;-75
2022/01/11 19:43:29;;;;;;;13.57;12.20;;;;;;;;;;12648933;28;20047;-75
2022/01/11 19:49:32;;;;;;;11.90;10.67;;;;;;;;;;12631634;28;20032;-75
2022/01/11 19:55:34;;;;;;;13.52;12.10;;;;;;;;;;12649575;28;20222;-75
2022/01/11 20:01:36;;;;;;;13.02;11.73;;;;;;;;;;12649416;28;20024;-76
2022/01/11 20:07:38;;;;;;;14.40;12.63;;;;;;;;;;12647952;28;20047;-74
2022/01/11 20:13:40;;;;;;;13.38;11.98;;;;;;;;;;12647022;28;20059;-75
2022/01/11 20:19:43;;;;;;;14.43;13.00;;;;;;;;;;12648900;28;20028;-76
2022/01/11 20:32:10;;;;;;;13.50;11.43;;;;;;;;;;12646829;28;20609;-74
2022/01/11 20:38:12;;;;;;;14.25;12.75;;;;;;;;;;12646424;28;20036;-76
2022/01/11 20:44:14;;;;;;;13.27;11.90;;;;;;;;;;12647487;28;20032;-76
2022/01/11 20:56:24;;;;;;;11.35;9.60;;;;;;;;;;12645636;28;20043;-75
2022/01/11 21:02:26;;;;;;;13.07;11.52;;;;;;;;;;12645138;28;20038;-74
2022/01/11 21:08:27;;;;;;;11.60;10.13;;;;;;;;;;12646105;28;20039;-73
2022/01/11 21:14:31;;;;;;;13.18;11.43;;;;;;;;;;12627452;28;20056;-74
2022/01/11 21:20:34;;;;;;;11.75;10.50;;;;;;;;;;12644323;28;20024;-74
2022/01/11 21:26:36;;;;;;;11.60;10.43;;;;;;;;;;12655557;28;20059;-76
2022/01/11 21:32:38;;;;;;;18.15;14.65;;;;;;;;;;12651818;28;20024;-75
2022/01/11 21:38:41;;;;;;;12.88;11.50;;;;;;;;;;12645151;28;20046;-75
2022/01/11 21:44:44;;;;;;;15.55;12.38;;;;;;;;;;12643963;28;20031;-75
2022/01/11 21:50:46;;;;;;;12.02;10.80;;;;;;;;;;12625743;28;20043;-75
2022/01/11 21:56:48;;;;;;;15.40;12.05;;;;;;;;;;12644165;28;20048;-74
2022/01/11 22:02:50;;;;;;;13.02;10.88;;;;;;;;;;12643862;28;20040;-75
2022/01/11 22:08:52;;;;;;;15.07;12.70;;;;;;;;;;12643661;28;20032;-75
2022/01/11 22:20:56;;;;;;;13.77;10.93;;;;;;;;;;12643627;28;20043;-74
2022/01/11 22:26:59;;;;;;;13.45;10.15;;;;;;;;;;12643655;28;20047;-75
2022/01/11 22:33:00;;;;;;;10.53;8.63;;;;;;;;;;12643220;28;20040;-74
2022/01/11 22:39:03;;;;;;;11.90;10.65;;;;;;;;;;12642676;28;20413;-73
2022/01/11 22:45:05;;;;;;;11.63;10.43;;;;;;;;;;12642296;28;20032;-74
2022/01/11 22:51:07;;;;;;;11.00;9.53;;;;;;;;;;12642394;28;20040;-75
2022/01/11 22:57:08;;;;;;;10.35;8.60;;;;;;;;;;12642839;28;20059;-75
2022/01/11 23:03:10;;;;;;;9.55;7.97;;;;;;;;;;12648067;28;20101;-75
2022/01/11 23:09:12;;;;;;;9.20;8.25;;;;;;;;;;12651626;28;20028;-75
2022/01/11 23:15:14;;;;;;;8.18;7.35;;;;;;;;;;12651211;28;20051;-74
2022/01/11 23:21:16;;;;;;;10.55;8.30;;;;;;;;;;12651304;28;20028;-74
2022/01/11 23:27:18;;;;;;;10.38;7.88;;;;;;;;;;12649784;28;20036;-75
2022/01/11 23:33:20;;;;;;;10.73;9.60;;;;;;;;;;12650699;28;20036;-74
2022/01/11 23:51:37;;;;;;;15.25;12.50;;;;;;;;;;12650133;28;20027;-74
2022/01/11 23:57:39;;;;;;;11.32;9.32;;;;;;;;;;12648157;28;20047;-75
